Terminal Aerodrome Forecast
Issued by NWS

Home | Current Version | Previous Version | Text Only | Print | Product List | Glossary On
Versions: 1 2 3 4 5 6 7 8 9 10 11 12 13
462
FTUS45 KRIW 191720
TAFCOD
TAF
KCOD 191720Z 1918/2018 28011KT P6SM BKN090
     FM200000 26011KT P6SM BKN100
     FM200300 26012G20KT P6SM SCT100
     FM200900 26011KT P6SM SCT100
     FM201500 26012G22KT P6SM BKN090
      AMD LTD TO CLD VIS AND WIND=

USA.gov is the U.S. government's official web portal to all federal, state and local government web resources and services.